createdAt,value
2022-08-28T00:00:15.782Z,73.33
2022-08-28T00:02:42.815Z,73.41
2022-08-28T00:05:11.748Z,74.35
2022-08-28T00:07:38.675Z,73.48
2022-08-28T00:10:07.860Z,74.04
2022-08-28T00:12:35.952Z,74.36
2022-08-28T00:15:07.457Z,73.89
2022-08-28T00:17:36.563Z,73.73
2022-08-28T00:20:06.450Z,73.74
2022-08-28T00:22:33.118Z,73.76
2022-08-28T00:24:59.674Z,73.69
2022-08-28T00:27:45.169Z,73.83
2022-08-28T00:30:12.068Z,73.89
2022-08-28T00:32:38.658Z,73.37
2022-08-28T00:35:06.419Z,73.81
2022-08-28T00:37:33.137Z,73.22
2022-08-28T00:39:59.764Z,73.06
2022-08-28T00:42:26.455Z,72.86
2022-08-28T00:44:53.135Z,72.62
2022-08-28T00:47:19.735Z,72.73
2022-08-28T00:49:51.385Z,73.17
2022-08-28T00:52:20.327Z,73.16
2022-08-28T00:55:14.032Z,72.83
2022-08-28T00:57:45.018Z,72.63
2022-08-28T01:00:16.607Z,72.76
2022-08-28T01:02:44.058Z,73.00
2022-08-28T01:05:12.009Z,73.43
2022-08-28T01:07:39.328Z,73.88
2022-08-28T01:10:11.243Z,74.02
2022-08-28T01:12:38.470Z,74.15
2022-08-28T01:15:11.871Z,73.90
2022-08-28T01:17:44.171Z,74.02
2022-08-28T01:20:18.036Z,73.70
2022-08-28T01:22:59.319Z,73.40
2022-08-28T01:25:30.699Z,73.46
2022-08-28T01:27:59.219Z,73.37
2022-08-28T01:30:25.946Z,73.97
2022-08-28T01:32:55.676Z,74.15
2022-08-28T01:35:31.621Z,74.52
2022-08-28T01:37:58.917Z,74.42
2022-08-28T01:40:36.460Z,74.64
2022-08-28T01:43:28.447Z,74.63
2022-08-28T01:46:02.256Z,74.80
2022-08-28T01:48:32.144Z,74.65
2022-08-28T01:50:59.438Z,75.02
2022-08-28T01:53:32.660Z,75.36
2022-08-28T01:56:01.602Z,75.00
2022-08-28T01:58:29.217Z,75.07
2022-08-28T02:00:57.472Z,74.72
2022-08-28T02:03:24.654Z,74.88
2022-08-28T02:05:51.378Z,74.84
2022-08-28T02:08:18.329Z,74.89
2022-08-28T02:10:45.261Z,74.61
2022-08-28T02:13:13.733Z,74.38
2022-08-28T02:15:43.179Z,74.14
2022-08-28T02:18:10.515Z,74.24
2022-08-28T02:20:37.792Z,74.75
2022-08-28T02:23:06.078Z,74.54
2022-08-28T02:25:33.076Z,74.08
2022-08-28T02:27:59.776Z,74.94
2022-08-28T02:30:27.190Z,74.26
2022-08-28T02:32:54.441Z,74.04
2022-08-28T02:35:23.004Z,74.41
2022-08-28T02:37:50.025Z,74.71
2022-08-28T02:40:18.616Z,74.26
2022-08-28T02:42:45.261Z,73.96
2022-08-28T02:45:13.362Z,73.95
2022-08-28T02:47:42.469Z,74.06
2022-08-28T02:50:11.045Z,74.18
2022-08-28T02:52:37.812Z,73.72
2022-08-28T02:55:06.628Z,74.03
2022-08-28T02:57:33.182Z,73.58
2022-08-28T02:59:59.910Z,73.64
2022-08-28T03:02:26.719Z,73.91
2022-08-28T03:04:55.437Z,73.88
2022-08-28T03:07:22.755Z,73.59
2022-08-28T03:09:50.616Z,73.59
2022-08-28T03:12:17.459Z,73.41
2022-08-28T03:14:45.427Z,73.58
2022-08-28T03:17:12.010Z,73.33
2022-08-28T03:19:38.574Z,73.19
2022-08-28T03:22:05.242Z,73.20
2022-08-28T03:24:31.948Z,73.51
2022-08-28T03:26:58.700Z,72.83
2022-08-28T03:29:25.561Z,73.06
2022-08-28T03:31:52.769Z,73.41
2022-08-28T03:34:19.700Z,72.32
2022-08-28T03:36:46.468Z,73.31
2022-08-28T03:39:13.994Z,73.03
2022-08-28T03:41:40.838Z,73.17
2022-08-28T03:44:07.905Z,73.19
2022-08-28T03:46:35.156Z,73.21
2022-08-28T03:49:03.701Z,73.40
2022-08-28T03:51:32.739Z,73.84
2022-08-28T03:54:00.133Z,73.09
2022-08-28T03:56:28.279Z,73.34
2022-08-28T03:58:58.814Z,73.67
2022-08-28T04:01:26.218Z,73.83
2022-08-28T04:03:53.020Z,73.62
2022-08-28T04:06:20.163Z,73.49
2022-08-28T04:08:47.900Z,73.82
2022-08-28T04:11:14.835Z,73.87
2022-08-28T04:13:42.191Z,74.11
2022-08-28T04:16:12.717Z,73.58
2022-08-28T04:18:41.624Z,73.68
2022-08-28T04:21:11.741Z,73.70
2022-08-28T04:23:39.850Z,73.26
2022-08-28T04:26:08.315Z,72.62
2022-08-28T04:28:35.177Z,72.93
2022-08-28T04:31:02.701Z,72.56
2022-08-28T04:33:30.002Z,72.45
2022-08-28T04:35:56.987Z,72.44
2022-08-28T04:38:23.777Z,71.90
2022-08-28T04:40:50.364Z,71.97
2022-08-28T04:43:17.207Z,72.21
2022-08-28T04:45:45.942Z,71.70
2022-08-28T04:48:14.039Z,70.89
2022-08-28T04:50:45.592Z,71.06
2022-08-28T04:53:12.851Z,70.83
2022-08-28T04:55:54.153Z,70.85
2022-08-28T04:58:22.342Z,70.91
2022-08-28T05:00:52.409Z,71.03
2022-08-28T05:03:19.459Z,70.69
2022-08-28T05:05:48.877Z,70.46
2022-08-28T05:08:18.611Z,71.27
2022-08-28T05:10:46.954Z,70.99
2022-08-28T05:13:18.693Z,70.77
2022-08-28T05:15:50.851Z,70.48
2022-08-28T05:18:20.964Z,70.81
2022-08-28T05:20:48.825Z,71.13
2022-08-28T05:23:16.856Z,71.30
2022-08-28T05:25:46.454Z,70.45
2022-08-28T05:28:14.655Z,70.32
2022-08-28T05:30:42.095Z,70.35
2022-08-28T05:33:10.367Z,70.28
2022-08-28T05:35:39.435Z,70.03
2022-08-28T05:38:07.293Z,70.29
2022-08-28T05:40:34.726Z,70.64
2022-08-28T05:43:01.589Z,70.83
2022-08-28T05:45:28.231Z,71.25
2022-08-28T05:47:54.830Z,70.91
2022-08-28T05:50:21.590Z,71.10
2022-08-28T05:52:48.314Z,71.17
2022-08-28T05:55:14.920Z,70.84
2022-08-28T05:57:42.052Z,70.87
2022-08-28T06:00:13.710Z,70.81
2022-08-28T06:02:42.126Z,70.04
2022-08-28T06:05:13.217Z,69.47
2022-08-28T06:07:41.226Z,69.45
2022-08-28T06:10:10.589Z,68.70
2022-08-28T06:12:37.714Z,67.87
2022-08-28T06:15:05.692Z,66.83
2022-08-28T06:17:35.021Z,66.55
2022-08-28T06:20:02.221Z,66.47
2022-08-28T06:22:28.849Z,66.16
2022-08-28T06:24:55.466Z,66.48
2022-08-28T06:27:22.448Z,66.37
2022-08-28T06:29:50.503Z,66.27
2022-08-28T06:32:17.147Z,65.28
2022-08-28T06:34:43.779Z,65.31
2022-08-28T06:37:15.781Z,64.90
2022-08-28T06:39:42.315Z,64.94
2022-08-28T06:42:10.583Z,65.14
2022-08-28T06:44:39.033Z,65.15
2022-08-28T06:47:05.815Z,64.99
2022-08-28T06:49:34.413Z,65.23
2022-08-28T06:52:00.973Z,65.34
2022-08-28T06:54:30.982Z,64.65
2022-08-28T06:56:57.613Z,63.88
2022-08-28T06:59:24.112Z,64.06
2022-08-28T07:01:52.944Z,62.77
2022-08-28T07:04:19.920Z,62.53
2022-08-28T07:06:53.817Z,62.58
2022-08-28T07:09:21.913Z,63.25
2022-08-28T07:11:48.530Z,62.83
2022-08-28T07:14:15.126Z,63.02
2022-08-28T07:16:42.137Z,63.15
2022-08-28T07:19:11.993Z,63.12
2022-08-28T07:21:41.711Z,62.34
2022-08-28T07:24:10.543Z,61.79
2022-08-28T07:26:38.086Z,61.45
2022-08-28T07:29:10.451Z,61.00
2022-08-28T07:31:43.071Z,61.12
2022-08-28T07:34:11.246Z,60.57
2022-08-28T07:36:38.690Z,59.46
2022-08-28T07:39:07.165Z,59.59
2022-08-28T07:41:37.393Z,59.56
2022-08-28T07:44:22.745Z,58.82
2022-08-28T07:46:53.801Z,59.54
2022-08-28T07:49:20.387Z,58.93
2022-08-28T07:51:47.136Z,57.60
2022-08-28T07:54:16.901Z,56.87
2022-08-28T07:56:45.404Z,54.80
2022-08-28T07:59:13.991Z,51.57
2022-08-28T08:01:46.777Z,52.14
2022-08-28T08:04:16.015Z,53.39
2022-08-28T08:06:43.042Z,53.55
2022-08-28T08:09:12.870Z,55.40
2022-08-28T08:11:40.153Z,54.35
2022-08-28T08:14:07.452Z,53.74
2022-08-28T08:16:38.672Z,52.65
2022-08-28T08:19:05.951Z,51.02
2022-08-28T08:21:32.807Z,50.39
2022-08-28T08:23:59.564Z,51.05
2022-08-28T08:26:28.318Z,50.83
2022-08-28T08:28:56.061Z,49.38
2022-08-28T08:31:28.465Z,50.38
2022-08-28T08:33:58.420Z,49.65
2022-08-28T08:36:27.042Z,49.59
2022-08-28T08:38:59.091Z,48.57
2022-08-28T08:41:32.809Z,47.83
2022-08-28T08:44:35.349Z,47.67
2022-08-28T08:47:15.164Z,47.22
2022-08-28T08:49:49.045Z,46.57
2022-08-28T08:52:40.442Z,47.20
2022-08-28T08:55:25.405Z,45.34
2022-08-28T08:57:59.468Z,45.25
2022-08-28T09:00:27.496Z,45.81
2022-08-28T09:03:05.740Z,45.47
2022-08-28T09:06:01.742Z,47.02
2022-08-28T09:08:37.144Z,49.13
2022-08-28T09:11:17.980Z,50.00
2022-08-28T09:13:55.369Z,49.07
2022-08-28T09:16:31.641Z,50.21
2022-08-28T09:19:00.400Z,49.52
2022-08-28T09:21:31.488Z,50.11
2022-08-28T09:24:05.756Z,49.34
2022-08-28T09:26:39.049Z,49.13
2022-08-28T09:29:14.072Z,49.78
2022-08-28T09:31:44.426Z,48.67
2022-08-28T09:34:23.631Z,48.34
2022-08-28T09:36:51.580Z,48.53
2022-08-28T09:39:27.706Z,48.52
2022-08-28T09:42:42.892Z,47.90
2022-08-28T09:45:14.522Z,47.65
2022-08-28T09:47:59.721Z,47.81
2022-08-28T09:50:35.358Z,48.23
2022-08-28T09:53:11.645Z,47.24
2022-08-28T09:56:03.625Z,47.74
2022-08-28T09:58:54.762Z,46.52
2022-08-28T10:01:46.763Z,45.72
2022-08-28T10:04:39.714Z,46.06
2022-08-28T10:07:25.072Z,46.80
2022-08-28T10:10:17.930Z,46.43
2022-08-28T10:12:53.515Z,46.42
2022-08-28T10:15:58.415Z,45.99
2022-08-28T10:18:37.030Z,45.66
2022-08-28T10:21:25.409Z,44.98
2022-08-28T10:24:26.406Z,45.43
2022-08-28T10:27:32.045Z,45.18
2022-08-28T10:30:12.533Z,45.22
2022-08-28T10:32:45.211Z,44.60
2022-08-28T10:35:22.862Z,45.27
2022-08-28T10:38:08.791Z,45.75
2022-08-28T10:41:14.213Z,45.83
2022-08-28T10:43:50.006Z,45.02
2022-08-28T10:46:27.326Z,46.17
2022-08-28T10:49:07.219Z,46.33
2022-08-28T10:51:44.473Z,45.20
2022-08-28T10:54:30.360Z,44.35
2022-08-28T10:57:14.209Z,44.79
2022-08-28T10:59:42.315Z,44.31
2022-08-28T11:02:13.445Z,43.37
2022-08-28T11:04:40.521Z,43.64
2022-08-28T11:07:11.311Z,43.46
2022-08-28T11:09:42.592Z,42.96
2022-08-28T11:12:30.298Z,43.18
2022-08-28T11:14:56.866Z,42.89
2022-08-28T11:17:27.836Z,43.53
2022-08-28T11:20:13.976Z,42.94
2022-08-28T11:22:58.867Z,42.27
2022-08-28T11:25:43.529Z,42.27
2022-08-28T11:28:25.790Z,41.27
2022-08-28T11:31:01.261Z,41.86
2022-08-28T11:33:39.787Z,42.33
2022-08-28T11:36:19.829Z,42.71
2022-08-28T11:38:46.860Z,43.14
2022-08-28T11:41:27.390Z,42.85
2022-08-28T11:44:24.501Z,42.38
2022-08-28T11:46:55.339Z,42.08
2022-08-28T11:49:31.715Z,41.59
2022-08-28T11:52:22.654Z,41.99
2022-08-28T11:55:26.443Z,41.03
2022-08-28T12:00:57.955Z,40.26
2022-08-28T12:03:44.759Z,40.64
2022-08-28T12:06:13.343Z,40.14
2022-08-28T12:08:49.001Z,40.09
2022-08-28T12:11:40.499Z,39.09
2022-08-28T12:14:27.881Z,39.62
2022-08-28T12:17:03.732Z,39.43
2022-08-28T12:19:49.981Z,39.42
2022-08-28T12:22:26.416Z,39.25
2022-08-28T12:24:58.030Z,38.72
2022-08-28T12:27:25.813Z,37.23
2022-08-28T12:29:57.964Z,36.50
2022-08-28T12:32:42.597Z,37.37
2022-08-28T12:35:16.864Z,35.39
2022-08-28T12:38:01.037Z,35.24
2022-08-28T12:40:39.909Z,34.03
2022-08-28T12:43:15.312Z,33.83
2022-08-28T12:45:50.597Z,32.83
2022-08-28T12:48:25.017Z,32.66
2022-08-28T12:51:19.582Z,32.56
2022-08-28T12:53:52.181Z,32.58
2022-08-28T12:56:20.884Z,32.25
2022-08-28T12:58:48.884Z,31.39
2022-08-28T13:01:21.388Z,31.85
2022-08-28T13:04:04.152Z,31.67
2022-08-28T13:06:35.898Z,31.47
2022-08-28T13:09:25.678Z,30.98
2022-08-28T13:11:52.523Z,31.01
2022-08-28T13:14:40.452Z,31.05
2022-08-28T13:17:08.525Z,31.22
2022-08-28T13:19:35.890Z,30.69
2022-08-28T13:22:05.848Z,30.41
2022-08-28T13:24:35.369Z,30.18
2022-08-28T13:27:12.602Z,30.06
2022-08-28T13:29:51.119Z,29.42
2022-08-28T13:32:22.936Z,30.31
2022-08-28T13:35:07.958Z,29.72
2022-08-28T13:37:43.312Z,30.10
2022-08-28T13:40:30.350Z,29.91
2022-08-28T13:43:11.415Z,30.22
2022-08-28T13:45:42.652Z,30.25
2022-08-28T13:48:15.969Z,29.60
2022-08-28T13:50:46.697Z,29.61
2022-08-28T13:53:16.478Z,29.89
2022-08-28T13:55:43.088Z,30.13
2022-08-28T13:58:10.667Z,30.16
2022-08-28T14:00:41.899Z,30.06
2022-08-28T14:03:27.057Z,30.70
2022-08-28T14:05:54.358Z,30.65
2022-08-28T14:08:21.933Z,30.82
2022-08-28T14:10:48.789Z,30.82
2022-08-28T14:13:15.505Z,30.21
2022-08-28T14:15:42.121Z,30.55
2022-08-28T14:18:08.791Z,30.65
2022-08-28T14:20:37.558Z,30.65
2022-08-28T14:23:04.256Z,30.97
2022-08-28T14:25:32.270Z,30.46
2022-08-28T14:28:01.491Z,30.53
2022-08-28T14:30:28.933Z,31.20
2022-08-28T14:32:55.568Z,30.38
2022-08-28T14:35:22.206Z,30.48
2022-08-28T14:37:49.100Z,30.46
2022-08-28T14:40:16.233Z,30.96
2022-08-28T14:42:42.902Z,30.67
2022-08-28T14:45:09.913Z,31.09
2022-08-28T14:47:39.237Z,30.76
2022-08-28T14:50:06.676Z,30.63
2022-08-28T14:52:33.373Z,31.04
2022-08-28T14:55:01.038Z,30.34
2022-08-28T14:57:27.701Z,30.76
2022-08-28T14:59:54.262Z,30.87
2022-08-28T15:02:21.856Z,31.09
2022-08-28T15:04:48.569Z,30.73
2022-08-28T15:07:15.442Z,29.93
2022-08-28T15:09:43.149Z,29.66
2022-08-28T15:12:10.527Z,29.71
2022-08-28T15:14:37.366Z,29.88
2022-08-28T15:17:04.348Z,30.04
2022-08-28T15:19:31.296Z,30.83
2022-08-28T15:21:58.767Z,29.60
2022-08-28T15:24:29.870Z,29.99
2022-08-28T15:26:57.314Z,30.92
2022-08-28T15:29:23.994Z,30.87
2022-08-28T15:31:51.195Z,31.35
2022-08-28T15:34:22.337Z,31.39
2022-08-28T15:36:55.601Z,31.08
2022-08-28T15:39:45.715Z,31.36
2022-08-28T15:42:13.214Z,31.19
2022-08-28T15:44:40.850Z,31.43
2022-08-28T15:47:07.701Z,31.97
2022-08-28T15:49:46.646Z,31.98
2022-08-28T15:52:18.240Z,31.77
2022-08-28T15:54:44.795Z,30.90
2022-08-28T15:57:11.443Z,31.55
2022-08-28T15:59:49.815Z,31.42
2022-08-28T16:02:23.845Z,31.21
2022-08-28T16:04:51.872Z,31.68
2022-08-28T16:07:20.685Z,31.49
2022-08-28T16:09:48.148Z,31.39
2022-08-28T16:12:15.097Z,31.97
2022-08-28T16:14:41.906Z,31.47
2022-08-28T16:17:10.725Z,31.40
2022-08-28T16:19:41.364Z,31.50
2022-08-28T16:22:10.081Z,31.60
2022-08-28T16:24:37.147Z,32.00
2022-08-28T16:27:03.804Z,31.71
2022-08-28T16:29:33.108Z,31.95
2022-08-28T16:31:59.767Z,32.14
2022-08-28T16:34:31.352Z,31.74
2022-08-28T16:36:59.235Z,31.93
2022-08-28T16:39:26.584Z,32.53
2022-08-28T16:41:53.177Z,32.93
2022-08-28T16:44:22.074Z,32.66
2022-08-28T16:46:48.822Z,31.86
2022-08-28T16:49:15.413Z,32.14
2022-08-28T16:51:41.988Z,32.51
2022-08-28T16:54:08.644Z,32.90
2022-08-28T16:56:35.620Z,32.54
2022-08-28T16:59:02.348Z,32.30
2022-08-28T17:01:29.040Z,32.60
2022-08-28T17:03:56.430Z,32.86
2022-08-28T17:06:26.404Z,32.85
2022-08-28T17:08:56.983Z,33.51
2022-08-28T17:11:28.310Z,33.11
2022-08-28T17:13:55.558Z,33.27
2022-08-28T17:16:23.820Z,33.60
2022-08-28T17:18:52.967Z,33.57
2022-08-28T17:21:40.735Z,33.82
2022-08-28T17:24:09.395Z,33.81
2022-08-28T17:26:35.996Z,34.09
2022-08-28T17:29:03.404Z,34.83
2022-08-28T17:31:30.274Z,35.22
2022-08-28T17:33:57.099Z,35.22
2022-08-28T17:36:33.458Z,35.05
2022-08-28T17:39:05.746Z,35.27
2022-08-28T17:41:33.506Z,35.44
2022-08-28T17:44:00.736Z,35.55
2022-08-28T17:46:27.446Z,35.64
2022-08-28T17:48:56.098Z,35.66
2022-08-28T17:51:42.074Z,35.73
2022-08-28T17:54:18.287Z,35.81
2022-08-28T17:56:45.458Z,36.04
2022-08-28T17:59:12.150Z,36.13
2022-08-28T18:01:39.807Z,36.34
2022-08-28T18:04:06.526Z,36.60
2022-08-28T18:06:33.184Z,36.59
2022-08-28T18:09:00.584Z,36.65
2022-08-28T18:11:27.886Z,36.42
2022-08-28T18:13:54.681Z,36.64
2022-08-28T18:16:21.624Z,36.84
2022-08-28T18:18:48.294Z,37.08
2022-08-28T18:21:14.927Z,37.33
2022-08-28T18:23:41.630Z,37.43
2022-08-28T18:26:08.965Z,37.18
2022-08-28T18:28:36.319Z,37.48
2022-08-28T18:31:06.087Z,37.73
2022-08-28T18:33:33.745Z,37.84
2022-08-28T18:36:00.380Z,38.07
2022-08-28T18:38:34.927Z,38.28
2022-08-28T18:41:06.457Z,38.38
2022-08-28T18:43:33.403Z,38.44
2022-08-28T18:46:01.468Z,38.48
2022-08-28T18:48:28.782Z,38.61
2022-08-28T18:50:55.364Z,38.82
2022-08-28T18:53:22.751Z,39.08
2022-08-28T18:55:52.658Z,39.04
2022-08-28T18:58:20.990Z,39.15
2022-08-28T19:00:47.992Z,39.37
2022-08-28T19:03:14.658Z,39.41
2022-08-28T19:05:41.890Z,39.61
2022-08-28T19:08:08.520Z,39.83
2022-08-28T19:10:36.986Z,39.68
2022-08-28T19:13:05.628Z,39.92
2022-08-28T19:15:33.734Z,40.02
2022-08-28T19:18:01.435Z,40.30
2022-08-28T19:20:28.776Z,40.34
2022-08-28T19:22:56.462Z,40.25
2022-08-28T19:25:28.490Z,40.53
2022-08-28T19:27:58.928Z,40.67
2022-08-28T19:30:28.508Z,40.79
2022-08-28T19:32:55.195Z,40.81
2022-08-28T19:35:24.215Z,41.24
2022-08-28T19:37:52.185Z,41.28
2022-08-28T19:40:19.409Z,41.22
2022-08-28T19:42:46.315Z,41.32
2022-08-28T19:45:15.102Z,41.67
2022-08-28T19:47:42.745Z,41.98
2022-08-28T19:50:13.389Z,42.09
2022-08-28T19:52:40.769Z,41.92
2022-08-28T19:55:08.551Z,42.00
2022-08-28T19:57:35.209Z,42.49
2022-08-28T20:00:02.432Z,42.32
2022-08-28T20:02:29.548Z,42.30
2022-08-28T20:04:56.401Z,42.41
2022-08-28T20:07:25.055Z,42.49
2022-08-28T20:09:52.232Z,42.60
2022-08-28T20:12:19.294Z,42.66
2022-08-28T20:14:46.401Z,42.59
2022-08-28T20:17:14.035Z,42.76
2022-08-28T20:19:41.390Z,42.86
2022-08-28T20:22:08.203Z,42.87
2022-08-28T20:24:35.343Z,43.14
2022-08-28T20:27:02.053Z,43.44
2022-08-28T20:29:29.227Z,43.71
2022-08-28T20:31:56.575Z,43.37
2022-08-28T20:34:24.508Z,43.83
2022-08-28T20:36:51.356Z,43.93
2022-08-28T20:39:19.058Z,44.16
2022-08-28T20:41:46.701Z,44.36
2022-08-28T20:44:16.826Z,44.48
2022-08-28T20:46:43.972Z,44.65
2022-08-28T20:49:17.597Z,44.86
2022-08-28T20:51:56.986Z,44.90
2022-08-28T20:54:29.969Z,44.98
2022-08-28T20:56:58.554Z,44.92
2022-08-28T20:59:28.842Z,45.05
2022-08-28T21:02:02.449Z,45.30
2022-08-28T21:04:30.474Z,45.47
2022-08-28T21:06:57.614Z,45.97
2022-08-28T21:09:40.967Z,45.88
2022-08-28T21:12:11.685Z,46.04
2022-08-28T21:14:38.431Z,46.64
2022-08-28T21:17:06.466Z,46.95
2022-08-28T21:19:35.282Z,46.92
2022-08-28T21:22:05.195Z,46.96
2022-08-28T21:24:31.729Z,47.04
2022-08-28T21:26:59.312Z,47.27
2022-08-28T21:29:26.267Z,47.39
2022-08-28T21:31:53.176Z,47.52
2022-08-28T21:34:21.825Z,47.47
2022-08-28T21:36:50.559Z,47.76
2022-08-28T21:39:20.717Z,47.73
2022-08-28T21:41:48.468Z,47.80
2022-08-28T21:44:15.619Z,47.93
2022-08-28T21:46:42.259Z,47.71
2022-08-28T21:49:09.057Z,48.14
2022-08-28T21:51:36.044Z,48.60
2022-08-28T21:54:02.770Z,48.38
2022-08-28T21:56:29.398Z,48.29
2022-08-28T21:58:56.808Z,48.39
2022-08-28T22:01:26.091Z,48.67
2022-08-28T22:03:54.019Z,48.95
2022-08-28T22:06:22.844Z,48.83
2022-08-28T22:08:50.747Z,48.93
2022-08-28T22:11:21.094Z,48.42
2022-08-28T22:13:52.115Z,48.91
2022-08-28T22:16:19.714Z,49.11
2022-08-28T22:18:46.308Z,49.19
2022-08-28T22:21:39.297Z,49.19
2022-08-28T22:24:08.613Z,49.32
2022-08-28T22:26:35.367Z,48.98
2022-08-28T22:29:02.000Z,49.05
2022-08-28T22:31:29.537Z,49.42
2022-08-28T22:33:56.220Z,49.19
2022-08-28T22:36:22.817Z,49.20
2022-08-28T22:38:53.129Z,48.96
2022-08-28T22:41:20.466Z,49.51
2022-08-28T22:43:51.425Z,49.46
2022-08-28T22:46:20.645Z,49.43
2022-08-28T22:48:48.604Z,49.27
2022-08-28T22:51:18.547Z,49.50
2022-08-28T22:53:45.949Z,49.83
2022-08-28T22:56:13.549Z,49.87
2022-08-28T22:58:40.809Z,50.11
2022-08-28T23:01:12.558Z,49.79
2022-08-28T23:03:40.021Z,50.07
2022-08-28T23:06:06.859Z,50.17
2022-08-28T23:08:34.292Z,49.96
2022-08-28T23:11:01.729Z,50.27
2022-08-28T23:13:30.299Z,49.82
2022-08-28T23:15:56.995Z,49.83
2022-08-28T23:18:23.558Z,50.01
2022-08-28T23:20:50.473Z,50.23
2022-08-28T23:23:18.564Z,50.31
2022-08-28T23:25:45.192Z,50.33
2022-08-28T23:28:11.863Z,50.49
2022-08-28T23:30:39.190Z,50.55
2022-08-28T23:33:08.593Z,50.53
2022-08-28T23:35:36.190Z,50.64
2022-08-28T23:38:04.283Z,50.42
2022-08-28T23:40:33.238Z,50.78
2022-08-28T23:43:00.921Z,50.70
2022-08-28T23:45:27.563Z,50.61
2022-08-28T23:47:54.955Z,50.04
2022-08-28T23:50:23.261Z,50.47
2022-08-28T23:52:50.755Z,50.70
2022-08-28T23:55:19.136Z,50.72
2022-08-28T23:57:46.046Z,50.81
